createdAt,value
2023-06-11T00:00:35.573Z,28
2023-06-11T00:03:06.541Z,32
2023-06-11T00:05:37.715Z,31
2023-06-11T00:08:09.637Z,28
2023-06-11T00:10:40.509Z,32
2023-06-11T00:13:11.784Z,32
2023-06-11T00:15:42.538Z,32
2023-06-11T00:18:13.485Z,32
2023-06-11T00:20:44.328Z,32
2023-06-11T00:23:14.943Z,28
2023-06-11T00:25:47.372Z,27
2023-06-11T00:28:17.015Z,32
2023-06-11T00:30:47.883Z,29
2023-06-11T00:33:18.804Z,32
2023-06-11T00:35:50.776Z,32
2023-06-11T00:38:23.030Z,33
2023-06-11T00:40:55.194Z,28
2023-06-11T00:43:24.298Z,32
2023-06-11T00:45:55.188Z,29
2023-06-11T00:48:25.931Z,32
2023-06-11T00:50:57.243Z,28
2023-06-11T00:53:28.011Z,28
2023-06-11T00:55:58.489Z,30
2023-06-11T00:58:32.008Z,32
2023-06-11T01:01:03.944Z,32
2023-06-11T01:03:39.229Z,28
2023-06-11T01:06:09.931Z,32
2023-06-11T01:08:40.846Z,32
2023-06-11T01:11:14.479Z,29
2023-06-11T01:13:46.265Z,30
2023-06-11T01:16:17.865Z,30
2023-06-11T01:18:48.595Z,29
2023-06-11T01:21:19.607Z,29
2023-06-11T01:23:51.966Z,28
2023-06-11T01:26:23.040Z,32
2023-06-11T01:28:54.089Z,32
2023-06-11T01:31:24.679Z,32
2023-06-11T01:33:55.456Z,29
2023-06-11T01:36:26.525Z,28
2023-06-11T01:38:57.277Z,28
2023-06-11T01:41:26.767Z,28
2023-06-11T01:43:57.770Z,32
2023-06-11T01:46:27.565Z,24
2023-06-11T01:48:59.876Z,32
2023-06-11T01:51:31.092Z,32
2023-06-11T01:54:03.032Z,28
2023-06-11T01:56:35.310Z,25
2023-06-11T01:59:06.242Z,27
2023-06-11T02:01:37.666Z,25
2023-06-11T02:04:10.398Z,28
2023-06-11T02:06:42.126Z,28
2023-06-11T02:09:13.299Z,28
2023-06-11T02:11:44.178Z,28
2023-06-11T02:14:15.037Z,28
2023-06-11T02:16:45.681Z,28
2023-06-11T02:19:16.875Z,31
2023-06-11T02:21:48.176Z,32
2023-06-11T02:24:19.181Z,26
2023-06-11T02:26:50.113Z,24
2023-06-11T02:29:20.693Z,29
2023-06-11T02:31:54.214Z,28
2023-06-11T02:34:25.597Z,29
2023-06-11T02:36:57.160Z,28
2023-06-11T02:39:28.045Z,28
2023-06-11T02:41:58.894Z,28
2023-06-11T02:44:29.562Z,28
2023-06-11T02:47:00.432Z,28
2023-06-11T02:49:31.126Z,29
2023-06-11T02:52:02.111Z,30
2023-06-11T02:54:33.123Z,28
2023-06-11T02:57:03.624Z,29
2023-06-11T02:59:34.437Z,28
2023-06-11T03:02:04.034Z,28
2023-06-11T03:04:36.076Z,28
2023-06-11T03:07:07.083Z,30
2023-06-11T03:09:38.102Z,28
2023-06-11T03:12:08.917Z,25
2023-06-11T03:14:39.605Z,28
2023-06-11T03:17:09.931Z,26
2023-06-11T03:19:39.537Z,28
2023-06-11T03:22:11.721Z,24
2023-06-11T03:24:42.804Z,27
2023-06-11T03:27:15.285Z,28
2023-06-11T03:29:46.735Z,24
2023-06-11T03:32:17.153Z,25
2023-06-11T03:34:46.950Z,28
2023-06-11T03:37:17.669Z,24
2023-06-11T03:39:47.778Z,28
2023-06-11T03:42:19.760Z,26
2023-06-11T03:44:51.808Z,24
2023-06-11T03:47:24.157Z,24
2023-06-11T03:49:55.217Z,26
2023-06-11T03:52:26.022Z,23
2023-06-11T03:54:55.440Z,27
2023-06-11T03:57:27.579Z,24
2023-06-11T03:59:58.115Z,28
2023-06-11T04:02:29.175Z,24
2023-06-11T04:05:00.196Z,24
2023-06-11T04:07:30.722Z,24
2023-06-11T04:10:01.804Z,27
2023-06-11T04:12:32.526Z,26
2023-06-11T04:15:03.126Z,21
2023-06-11T04:17:34.802Z,26
2023-06-11T04:20:05.402Z,27
2023-06-11T04:22:36.462Z,26
2023-06-11T04:25:06.937Z,24
2023-06-11T04:27:37.927Z,24
2023-06-11T04:30:08.355Z,24
2023-06-11T04:32:38.973Z,20
2023-06-11T04:35:08.324Z,24
2023-06-11T04:37:39.940Z,24
2023-06-11T04:40:10.770Z,21
2023-06-11T04:42:41.892Z,20
2023-06-11T04:45:12.954Z,23
2023-06-11T04:47:43.821Z,20
2023-06-11T04:50:15.584Z,24
2023-06-11T04:52:46.598Z,27
2023-06-11T04:55:17.377Z,23
2023-06-11T04:57:48.396Z,24
2023-06-11T05:00:19.026Z,24
2023-06-11T05:02:49.661Z,20
2023-06-11T05:05:20.350Z,20
2023-06-11T05:07:49.771Z,22
2023-06-11T05:10:21.761Z,21
2023-06-11T05:12:59.335Z,28
2023-06-11T05:15:30.336Z,24
2023-06-11T05:18:02.032Z,16
2023-06-11T05:20:33.551Z,23
2023-06-11T05:23:04.548Z,20
2023-06-11T05:25:36.832Z,24
2023-06-11T05:28:07.738Z,28
2023-06-11T05:30:38.422Z,36
2023-06-11T05:33:12.101Z,43
2023-06-11T05:35:42.855Z,38
2023-06-11T05:38:13.804Z,40
2023-06-11T05:40:45.152Z,28
2023-06-11T05:43:16.222Z,28
2023-06-11T05:45:47.101Z,48
2023-06-11T05:48:18.152Z,35
2023-06-11T05:50:50.862Z,44
2023-06-11T05:53:21.681Z,32
2023-06-11T05:55:55.319Z,28
2023-06-11T05:58:23.851Z,20
2023-06-11T06:00:54.534Z,21
2023-06-11T06:03:25.706Z,20
2023-06-11T06:05:55.286Z,23
2023-06-11T06:08:26.384Z,20
2023-06-11T06:10:57.301Z,40
2023-06-11T06:13:28.385Z,48
2023-06-11T06:15:59.042Z,40
2023-06-11T06:18:29.674Z,32
2023-06-11T06:21:00.221Z,32
2023-06-11T06:23:32.856Z,25
2023-06-11T06:26:05.120Z,24
2023-06-11T06:28:36.098Z,24
2023-06-11T06:31:06.904Z,36
2023-06-11T06:33:37.877Z,28
2023-06-11T06:36:08.862Z,25
2023-06-11T06:38:41.364Z,36
2023-06-11T06:41:10.745Z,28
2023-06-11T06:43:43.228Z,20
2023-06-11T06:46:14.436Z,32
2023-06-11T06:48:44.846Z,24
2023-06-11T06:51:16.238Z,28
2023-06-11T06:53:46.754Z,27
2023-06-11T06:56:24.569Z,24
2023-06-11T06:58:55.107Z,25
2023-06-11T07:01:25.872Z,24
2023-06-11T07:03:56.842Z,28
2023-06-11T07:06:28.064Z,20
2023-06-11T07:08:57.755Z,36
2023-06-11T07:11:32.343Z,22
2023-06-11T07:14:03.348Z,28
2023-06-11T07:16:34.251Z,25
2023-06-11T07:19:05.233Z,28
2023-06-11T07:21:35.876Z,33
2023-06-11T07:24:06.619Z,24
2023-06-11T07:26:40.696Z,17
2023-06-11T07:29:12.909Z,20
2023-06-11T07:31:43.712Z,23
2023-06-11T07:34:14.871Z,20
2023-06-11T07:36:45.427Z,16
2023-06-11T07:39:16.690Z,16
2023-06-11T07:41:45.903Z,24
2023-06-11T07:44:16.662Z,24
2023-06-11T07:46:48.654Z,16
2023-06-11T07:49:19.218Z,18
2023-06-11T07:51:50.409Z,24
2023-06-11T07:54:21.510Z,16
2023-06-11T07:56:52.261Z,21
2023-06-11T07:59:23.467Z,12
2023-06-11T08:01:54.239Z,17
2023-06-11T08:04:25.295Z,16
2023-06-11T08:06:55.911Z,20
2023-06-11T08:09:28.422Z,19
2023-06-11T08:11:59.268Z,12
2023-06-11T08:14:31.196Z,12
2023-06-11T08:17:01.894Z,24
2023-06-11T08:19:32.504Z,16
2023-06-11T08:22:01.722Z,12
2023-06-11T08:24:32.793Z,13
2023-06-11T08:27:03.502Z,12
2023-06-11T08:29:34.210Z,12
2023-06-11T08:32:05.465Z,13
2023-06-11T08:34:36.220Z,12
2023-06-11T08:37:07.231Z,12
2023-06-11T08:39:37.977Z,24
2023-06-11T08:42:10.607Z,11
2023-06-11T08:44:41.431Z,18
2023-06-11T08:47:11.895Z,12
2023-06-11T08:49:42.606Z,15
2023-06-11T08:52:14.512Z,12
2023-06-11T08:54:44.841Z,12
2023-06-11T08:57:16.311Z,12
2023-06-11T08:59:47.240Z,13
2023-06-11T09:02:18.038Z,12
2023-06-11T09:04:48.809Z,17
2023-06-11T09:07:19.707Z,12
2023-06-11T09:09:50.005Z,16
2023-06-11T09:12:20.514Z,16
2023-06-11T09:14:51.767Z,20
2023-06-11T09:17:22.293Z,17
2023-06-11T09:19:53.178Z,19
2023-06-11T09:22:23.687Z,20
2023-06-11T09:24:55.484Z,20
2023-06-11T09:27:26.110Z,27
2023-06-11T09:29:56.751Z,28
2023-06-11T09:32:33.694Z,47
2023-06-11T09:34:58.801Z,22
2023-06-11T09:37:29.091Z,24
2023-06-11T09:40:00.135Z,36
2023-06-11T09:42:30.654Z,32
2023-06-11T09:45:01.238Z,32
2023-06-11T09:47:32.047Z,33
2023-06-11T09:50:00.781Z,50
2023-06-11T09:52:30.237Z,36
2023-06-11T09:55:00.616Z,28
2023-06-11T09:57:30.894Z,25
2023-06-11T10:00:02.319Z,29
2023-06-11T10:02:31.341Z,28
2023-06-11T10:05:03.050Z,27
2023-06-11T10:07:33.480Z,21
2023-06-11T10:10:05.282Z,19
2023-06-11T10:12:35.580Z,20
2023-06-11T10:15:06.367Z,21
2023-06-11T10:17:37.106Z,20
2023-06-11T10:20:08.541Z,24
2023-06-11T10:22:39.049Z,20
2023-06-11T10:25:09.629Z,28
2023-06-11T10:27:39.960Z,36
2023-06-11T10:30:12.131Z,29
2023-06-11T10:32:42.768Z,27
2023-06-11T10:35:13.357Z,25
2023-06-11T10:37:43.777Z,25
2023-06-11T10:40:15.491Z,27
2023-06-11T10:42:43.689Z,20
2023-06-11T10:45:14.426Z,24
2023-06-11T10:47:45.230Z,19
2023-06-11T10:50:16.776Z,24
2023-06-11T10:52:46.769Z,24
2023-06-11T10:55:15.660Z,20
2023-06-11T10:57:47.480Z,24
2023-06-11T11:00:17.980Z,24
2023-06-11T11:02:49.074Z,24
2023-06-11T11:05:19.870Z,20
2023-06-11T11:07:51.565Z,20
2023-06-11T11:10:22.374Z,24
2023-06-11T11:12:54.490Z,24
2023-06-11T11:15:25.064Z,28
2023-06-11T11:17:55.400Z,28
2023-06-11T11:20:26.121Z,27
2023-06-11T11:22:57.374Z,20
2023-06-11T11:25:28.328Z,20
2023-06-11T11:27:59.942Z,20
2023-06-11T11:30:31.121Z,28
2023-06-11T11:33:02.067Z,24
2023-06-11T11:35:32.817Z,20
2023-06-11T11:38:03.870Z,16
2023-06-11T11:40:34.170Z,19
2023-06-11T11:43:05.301Z,28
2023-06-11T11:45:35.989Z,16
2023-06-11T11:48:06.403Z,20
2023-06-11T11:50:37.441Z,23
2023-06-11T11:53:11.131Z,24
2023-06-11T11:55:52.162Z,21
2023-06-11T11:58:12.182Z,20
2023-06-11T12:00:42.819Z,20
2023-06-11T12:03:13.597Z,20
2023-06-11T12:05:44.978Z,24
2023-06-11T12:08:15.543Z,28
2023-06-11T12:10:48.206Z,20
2023-06-11T12:13:18.418Z,21
2023-06-11T12:15:49.057Z,20
2023-06-11T12:18:19.954Z,20
2023-06-11T12:20:50.504Z,20
2023-06-11T12:23:21.037Z,20
2023-06-11T12:25:51.465Z,16
2023-06-11T12:28:22.016Z,16
2023-06-11T12:30:52.586Z,16
2023-06-11T12:33:23.110Z,12
2023-06-11T12:35:53.446Z,16
2023-06-11T12:38:25.952Z,13
2023-06-11T12:40:56.534Z,16
2023-06-11T12:43:27.518Z,16
2023-06-11T12:45:59.334Z,16
2023-06-11T12:48:30.287Z,19
2023-06-11T12:51:00.831Z,13
2023-06-11T12:53:31.185Z,12
2023-06-11T12:56:02.223Z,19
2023-06-11T12:58:32.606Z,16
2023-06-11T13:01:03.118Z,20
2023-06-11T13:03:33.989Z,16
2023-06-11T13:06:05.393Z,16
2023-06-11T13:08:36.187Z,24
2023-06-11T13:11:06.718Z,16
2023-06-11T13:13:37.858Z,24
2023-06-11T13:16:08.644Z,26
2023-06-11T13:18:39.777Z,19
2023-06-11T13:21:11.460Z,16
2023-06-11T13:23:42.026Z,12
2023-06-11T13:26:12.516Z,31
2023-06-11T13:28:43.282Z,20
2023-06-11T13:31:14.038Z,24
2023-06-11T13:33:44.429Z,17
2023-06-11T13:36:15.073Z,24
2023-06-11T13:38:46.020Z,26
2023-06-11T13:41:16.695Z,28
2023-06-11T13:43:48.042Z,12
2023-06-11T13:46:18.492Z,24
2023-06-11T13:48:49.911Z,28
2023-06-11T13:51:20.524Z,16
2023-06-11T13:53:51.625Z,20
2023-06-11T13:56:22.035Z,21
2023-06-11T13:58:52.611Z,24
2023-06-11T14:01:23.878Z,24
2023-06-11T14:03:54.769Z,19
2023-06-11T14:06:26.808Z,13
2023-06-11T14:08:57.087Z,20
2023-06-11T14:11:27.614Z,29
2023-06-11T14:13:58.339Z,13
2023-06-11T14:16:29.024Z,16
2023-06-11T14:18:59.756Z,12
2023-06-11T14:21:30.767Z,19
2023-06-11T14:24:01.403Z,19
2023-06-11T14:26:32.521Z,12
2023-06-11T14:29:03.167Z,8
2023-06-11T14:31:34.959Z,13
2023-06-11T14:34:06.473Z,8
2023-06-11T14:36:36.807Z,16
2023-06-11T14:39:07.270Z,9
2023-06-11T14:41:38.050Z,13
2023-06-11T14:44:08.679Z,16
2023-06-11T14:46:40.007Z,8
2023-06-11T14:49:11.699Z,15
2023-06-11T14:51:41.601Z,12
2023-06-11T14:54:12.005Z,8
2023-06-11T14:56:42.956Z,12
2023-06-11T14:59:13.802Z,20
2023-06-11T15:01:44.590Z,8
2023-06-11T15:04:15.336Z,12
2023-06-11T15:06:46.020Z,17
2023-06-11T15:09:16.720Z,15
2023-06-11T15:11:48.855Z,8
2023-06-11T15:14:19.123Z,13
2023-06-11T15:16:48.536Z,17
2023-06-11T15:19:18.860Z,8
2023-06-11T15:21:49.842Z,9
2023-06-11T15:24:21.079Z,11
2023-06-11T15:26:51.750Z,15
2023-06-11T15:29:22.435Z,14
2023-06-11T15:31:53.080Z,11
2023-06-11T15:34:23.529Z,12
2023-06-11T15:36:54.351Z,20
2023-06-11T15:39:25.061Z,28
2023-06-11T15:41:56.224Z,29
2023-06-11T15:44:26.735Z,24
2023-06-11T15:46:58.111Z,24
2023-06-11T15:49:29.010Z,19
2023-06-11T15:51:59.722Z,24
2023-06-11T15:54:30.433Z,23
2023-06-11T15:57:01.711Z,12
2023-06-11T15:59:32.280Z,16
2023-06-11T16:02:03.273Z,20
2023-06-11T16:04:34.475Z,17
2023-06-11T16:07:05.088Z,18
2023-06-11T16:09:36.084Z,18
2023-06-11T16:12:08.106Z,16
2023-06-11T16:14:38.801Z,16
2023-06-11T16:17:08.182Z,20
2023-06-11T16:19:38.568Z,16
2023-06-11T16:22:12.131Z,28
2023-06-11T16:24:40.495Z,28
2023-06-11T16:27:11.753Z,28
2023-06-11T16:29:42.972Z,20
2023-06-11T16:32:14.169Z,20
2023-06-11T16:34:42.854Z,16
2023-06-11T16:37:12.144Z,17
2023-06-11T16:39:42.536Z,16
2023-06-11T16:42:13.954Z,12
2023-06-11T16:44:43.017Z,16
2023-06-11T16:47:14.250Z,16
2023-06-11T16:49:44.848Z,17
2023-06-11T16:52:15.602Z,15
2023-06-11T16:54:46.139Z,16
2023-06-11T16:57:17.072Z,12
2023-06-11T16:59:47.539Z,17
2023-06-11T17:02:18.226Z,15
2023-06-11T17:04:48.693Z,16
2023-06-11T17:07:19.504Z,15
2023-06-11T17:09:50.640Z,13
2023-06-11T17:12:21.737Z,12
2023-06-11T17:14:54.481Z,12
2023-06-11T17:17:24.056Z,12
2023-06-11T17:19:55.186Z,16
2023-06-11T17:22:26.093Z,12
2023-06-11T17:24:59.223Z,16
2023-06-11T17:27:30.536Z,16
2023-06-11T17:30:03.051Z,16
2023-06-11T17:32:39.195Z,12
2023-06-11T17:35:09.682Z,12
2023-06-11T17:37:40.184Z,12
2023-06-11T17:40:12.313Z,17
2023-06-11T17:42:42.429Z,12
2023-06-11T17:45:13.078Z,15
2023-06-11T17:47:43.714Z,12
2023-06-11T17:50:15.455Z,12
2023-06-11T17:52:46.532Z,16
2023-06-11T17:55:16.845Z,21
2023-06-11T17:57:47.525Z,24
2023-06-11T18:00:16.712Z,16
2023-06-11T18:02:48.379Z,12
2023-06-11T18:05:18.846Z,28
2023-06-11T18:07:49.485Z,28
2023-06-11T18:10:19.909Z,32
2023-06-11T18:12:50.685Z,25
2023-06-11T18:17:51.751Z,20
2023-06-11T18:20:22.733Z,20
2023-06-11T18:22:53.005Z,16
2023-06-11T18:25:23.956Z,20
2023-06-11T18:27:55.264Z,18
2023-06-11T18:30:26.215Z,24
2023-06-11T18:32:57.380Z,12
2023-06-11T18:35:25.999Z,17
2023-06-11T18:37:57.272Z,20
2023-06-11T18:40:27.494Z,19
2023-06-11T18:42:58.276Z,16
2023-06-11T18:45:29.527Z,14
2023-06-11T18:48:03.113Z,16
2023-06-11T18:50:33.813Z,20
2023-06-11T18:53:04.335Z,28
2023-06-11T18:55:36.528Z,16
2023-06-11T18:58:11.055Z,28
2023-06-11T19:00:41.419Z,23
2023-06-11T19:03:12.727Z,28
2023-06-11T19:05:42.942Z,28
2023-06-11T19:08:13.436Z,24
2023-06-11T19:10:44.124Z,26
2023-06-11T19:13:14.350Z,25
2023-06-11T19:15:46.735Z,23
2023-06-11T19:18:17.287Z,23
2023-06-11T19:20:48.192Z,23
2023-06-11T19:23:18.597Z,24
2023-06-11T19:25:49.136Z,20
2023-06-11T19:28:19.623Z,24
2023-06-11T19:30:51.188Z,18
2023-06-11T19:33:21.586Z,25
2023-06-11T19:35:52.213Z,34
2023-06-11T19:38:22.834Z,32
2023-06-11T19:40:53.519Z,20
2023-06-11T19:43:24.148Z,20
2023-06-11T19:45:54.458Z,20
2023-06-11T19:48:25.127Z,22
2023-06-11T19:50:55.865Z,23
2023-06-11T19:53:24.369Z,24
2023-06-11T19:55:55.099Z,30
2023-06-11T19:58:25.676Z,29
2023-06-11T20:00:56.788Z,24
2023-06-11T20:03:26.979Z,20
2023-06-11T20:05:57.405Z,20
2023-06-11T20:08:28.156Z,17
2023-06-11T20:10:58.702Z,24
2023-06-11T20:13:30.028Z,17
2023-06-11T20:15:59.251Z,18
2023-06-11T20:18:31.396Z,16
2023-06-11T20:21:02.232Z,20
2023-06-11T20:23:33.330Z,29
2023-06-11T20:26:04.124Z,20
2023-06-11T20:28:34.720Z,20
2023-06-11T20:31:07.473Z,20
2023-06-11T20:33:37.953Z,24
2023-06-11T20:36:08.749Z,16
2023-06-11T20:38:39.771Z,24
2023-06-11T20:41:11.910Z,24
2023-06-11T20:43:42.876Z,33
2023-06-11T20:46:27.593Z,24
2023-06-11T20:48:46.435Z,18
2023-06-11T20:53:47.923Z,24
2023-06-11T20:56:18.543Z,24
2023-06-11T20:58:50.385Z,22
2023-06-11T21:01:22.169Z,20
2023-06-11T21:03:52.940Z,20
2023-06-11T21:06:23.346Z,24
2023-06-11T21:08:54.294Z,24
2023-06-11T21:11:24.959Z,20
2023-06-11T21:14:08.754Z,21
2023-06-11T21:16:24.787Z,21
2023-06-11T21:18:55.378Z,20
2023-06-11T21:21:25.878Z,28
2023-06-11T21:23:57.335Z,24
2023-06-11T21:26:28.033Z,23
2023-06-11T21:28:59.476Z,20
2023-06-11T21:31:30.034Z,20
2023-06-11T21:34:00.379Z,20
2023-06-11T21:36:31.275Z,20
2023-06-11T21:39:01.919Z,20
2023-06-11T21:41:32.414Z,20
2023-06-11T21:44:03.303Z,20
2023-06-11T21:46:34.489Z,16
2023-06-11T21:49:05.078Z,16
2023-06-11T21:51:35.835Z,17
2023-06-11T21:54:06.759Z,17
2023-06-11T21:56:37.504Z,16
2023-06-11T21:59:08.307Z,17
2023-06-11T22:01:39.205Z,16
2023-06-11T22:04:09.802Z,21
2023-06-11T22:06:40.336Z,16
2023-06-11T22:09:11.060Z,19
2023-06-11T22:11:41.964Z,20
2023-06-11T22:14:12.838Z,20
2023-06-11T22:16:43.989Z,24
2023-06-11T22:19:14.517Z,17
2023-06-11T22:21:45.324Z,20
2023-06-11T22:24:15.955Z,20
2023-06-11T22:26:44.944Z,24
2023-06-11T22:29:15.601Z,20
2023-06-11T22:31:46.345Z,19
2023-06-11T22:34:18.629Z,20
2023-06-11T22:36:50.019Z,24
2023-06-11T22:39:21.001Z,20
2023-06-11T22:41:51.705Z,20
2023-06-11T22:44:22.997Z,20
2023-06-11T22:46:53.698Z,18
2023-06-11T22:49:24.272Z,16
2023-06-11T22:51:55.014Z,25
2023-06-11T22:54:25.736Z,19
2023-06-11T22:56:56.197Z,21
2023-06-11T22:59:26.935Z,20
2023-06-11T23:01:57.709Z,20
2023-06-11T23:04:28.586Z,20
2023-06-11T23:06:59.134Z,19
2023-06-11T23:09:29.574Z,20
2023-06-11T23:12:00.183Z,16
2023-06-11T23:14:30.123Z,20
2023-06-11T23:17:00.627Z,16
2023-06-11T23:19:31.680Z,17
2023-06-11T23:22:02.419Z,16
2023-06-11T23:24:33.517Z,20
2023-06-11T23:27:04.545Z,19
2023-06-11T23:29:35.571Z,17
2023-06-11T23:32:06.364Z,24
2023-06-11T23:34:36.942Z,13
2023-06-11T23:37:07.792Z,20
2023-06-11T23:39:40.692Z,20
2023-06-11T23:42:11.587Z,13
2023-06-11T23:44:42.660Z,19
2023-06-11T23:47:13.476Z,16
2023-06-11T23:49:44.465Z,12
2023-06-11T23:52:15.621Z,16
2023-06-11T23:54:48.264Z,16
2023-06-11T23:57:19.044Z,16
2023-06-11T23:59:50.133Z,12
